createdAt,value
2022-09-30T00:00:03.519Z,14.40
2022-09-30T00:00:13.601Z,14.40
2022-09-30T00:00:23.757Z,14.60
2022-09-30T00:00:33.799Z,14.40
2022-09-30T00:00:43.871Z,14.00
2022-09-30T00:00:53.932Z,14.80
2022-09-30T00:01:03.988Z,14.90
2022-09-30T00:01:14.057Z,14.70
2022-09-30T00:01:24.161Z,13.90
2022-09-30T00:01:34.257Z,14.20
2022-09-30T00:01:44.446Z,16.40
2022-09-30T00:01:54.509Z,16.30
2022-09-30T00:02:04.643Z,15.20
2022-09-30T00:02:14.646Z,14.50
2022-09-30T00:02:24.710Z,15.10
2022-09-30T00:02:34.805Z,16.40
2022-09-30T00:02:44.960Z,16.20
2022-09-30T00:02:55.057Z,16.60
2022-09-30T00:03:05.205Z,16.20
2022-09-30T00:03:15.206Z,16.70
2022-09-30T00:03:25.337Z,16.10
2022-09-30T00:03:35.388Z,15.00
2022-09-30T00:03:45.477Z,14.80
2022-09-30T00:03:55.555Z,15.10
2022-09-30T00:04:05.629Z,15.60
2022-09-30T00:04:15.840Z,15.20
2022-09-30T00:04:25.788Z,15.40
2022-09-30T00:04:35.858Z,16.20
2022-09-30T00:04:45.948Z,15.80
2022-09-30T00:04:55.998Z,15.90
2022-09-30T00:05:06.042Z,15.10
2022-09-30T00:05:16.078Z,17.20
2022-09-30T00:05:26.140Z,16.90
2022-09-30T00:05:36.198Z,16.80
2022-09-30T00:05:46.257Z,15.00
2022-09-30T00:05:56.298Z,14.20
2022-09-30T00:06:08.734Z,13.90
2022-09-30T00:06:16.438Z,13.20
2022-09-30T00:06:26.491Z,15.30
2022-09-30T00:06:36.540Z,15.80
2022-09-30T00:06:46.602Z,16.70
2022-09-30T00:06:56.679Z,14.60
2022-09-30T00:07:06.819Z,14.90
2022-09-30T00:07:16.868Z,14.60
2022-09-30T00:07:26.949Z,15.00
2022-09-30T00:07:37.139Z,14.00
2022-09-30T00:07:47.197Z,13.40
2022-09-30T00:07:57.290Z,13.20
2022-09-30T00:08:07.392Z,14.90
2022-09-30T00:08:17.531Z,16.60
2022-09-30T00:08:27.692Z,15.90
2022-09-30T00:08:37.766Z,13.80
2022-09-30T00:08:47.902Z,14.00
2022-09-30T00:08:58.057Z,15.50
2022-09-30T00:09:08.190Z,15.90
2022-09-30T00:09:18.383Z,15.60
2022-09-30T00:09:28.509Z,14.30
2022-09-30T00:09:38.645Z,15.40
2022-09-30T00:09:48.640Z,15.60
2022-09-30T00:09:58.787Z,17.00
2022-09-30T00:10:08.838Z,15.50
2022-09-30T00:10:18.919Z,15.40
2022-09-30T00:10:28.999Z,14.80
2022-09-30T00:10:39.087Z,14.40
2022-09-30T00:10:49.140Z,14.60
2022-09-30T00:10:59.199Z,14.20
2022-09-30T00:11:09.269Z,15.30
2022-09-30T00:11:19.339Z,14.90
2022-09-30T00:11:29.428Z,16.00
2022-09-30T00:11:39.488Z,14.90
2022-09-30T00:11:49.569Z,15.80
2022-09-30T00:11:59.619Z,16.10
2022-09-30T00:12:09.687Z,15.40
2022-09-30T00:12:19.747Z,15.80
2022-09-30T00:12:29.814Z,15.60
2022-09-30T00:12:39.885Z,15.30
2022-09-30T00:12:49.948Z,15.60
2022-09-30T00:13:00.027Z,15.40
2022-09-30T00:13:10.098Z,15.20
2022-09-30T00:13:20.170Z,15.30
2022-09-30T00:13:30.230Z,15.80
2022-09-30T00:13:40.288Z,16.10
2022-09-30T00:13:50.368Z,16.20
2022-09-30T00:14:00.428Z,15.80
2022-09-30T00:14:10.517Z,15.20
2022-09-30T00:14:20.577Z,13.90
2022-09-30T00:14:30.635Z,13.80
2022-09-30T00:14:40.746Z,15.40
2022-09-30T00:14:50.808Z,17.00
2022-09-30T00:15:00.868Z,17.40
2022-09-30T00:15:10.987Z,15.80
2022-09-30T00:15:21.048Z,14.40
2022-09-30T00:15:31.117Z,13.90
2022-09-30T00:15:41.169Z,14.40
2022-09-30T00:15:51.248Z,14.30
2022-09-30T00:16:01.368Z,14.60
2022-09-30T00:16:11.494Z,15.60
2022-09-30T00:16:21.631Z,16.00
2022-09-30T00:16:31.777Z,15.80
2022-09-30T00:16:41.844Z,16.20
2022-09-30T00:16:51.932Z,16.40
2022-09-30T00:17:01.974Z,16.90
2022-09-30T00:17:12.035Z,15.20
2022-09-30T00:17:22.108Z,15.10
2022-09-30T00:17:32.169Z,14.90
2022-09-30T00:17:42.280Z,16.10
2022-09-30T00:17:52.339Z,16.20
2022-09-30T00:18:02.418Z,16.70
2022-09-30T00:18:12.479Z,17.20
2022-09-30T00:18:22.547Z,16.90
2022-09-30T00:18:32.617Z,18.20
2022-09-30T00:18:42.674Z,17.30
2022-09-30T00:18:52.739Z,16.60
2022-09-30T00:19:02.808Z,15.10
2022-09-30T00:19:12.885Z,14.20
2022-09-30T00:19:22.991Z,14.20
2022-09-30T00:19:33.055Z,14.60
2022-09-30T00:19:43.125Z,15.00
2022-09-30T00:19:53.191Z,15.70
2022-09-30T00:20:03.277Z,16.80
2022-09-30T00:20:13.347Z,16.10
2022-09-30T00:20:23.406Z,15.20
2022-09-30T00:20:33.468Z,15.10
2022-09-30T00:20:43.539Z,14.50
2022-09-30T00:20:53.567Z,13.90
2022-09-30T00:21:03.629Z,14.70
2022-09-30T00:21:13.706Z,16.00
2022-09-30T00:21:23.767Z,16.00
2022-09-30T00:21:33.819Z,16.30
2022-09-30T00:21:43.867Z,14.90
2022-09-30T00:21:53.924Z,15.60
2022-09-30T00:22:03.984Z,15.80
2022-09-30T00:22:14.044Z,16.00
2022-09-30T00:22:24.095Z,14.90
2022-09-30T00:22:34.147Z,14.60
2022-09-30T00:22:44.246Z,15.00
2022-09-30T00:22:54.298Z,15.50
2022-09-30T00:23:04.336Z,15.90
2022-09-30T00:23:14.431Z,15.60
2022-09-30T00:23:24.501Z,15.80
2022-09-30T00:23:34.568Z,14.60
2022-09-30T00:23:44.636Z,15.00
2022-09-30T00:23:54.722Z,15.20
2022-09-30T00:24:04.820Z,15.90
2022-09-30T00:24:15.035Z,16.30
2022-09-30T00:24:24.946Z,15.50
2022-09-30T00:24:35.015Z,15.30
2022-09-30T00:24:45.067Z,14.50
2022-09-30T00:24:55.118Z,14.70
2022-09-30T00:25:05.171Z,14.30
2022-09-30T00:25:15.246Z,14.40
2022-09-30T00:25:25.296Z,14.60
2022-09-30T00:25:35.346Z,15.90
2022-09-30T00:25:45.397Z,15.70
2022-09-30T00:25:55.458Z,16.40
2022-09-30T00:26:05.511Z,16.00
2022-09-30T00:26:15.576Z,17.30
2022-09-30T00:26:25.628Z,16.40
2022-09-30T00:26:35.687Z,16.40
2022-09-30T00:26:45.747Z,17.50
2022-09-30T00:26:55.814Z,17.50
2022-09-30T00:27:05.855Z,17.80
2022-09-30T00:27:15.917Z,16.70
2022-09-30T00:27:25.974Z,17.10
2022-09-30T00:27:36.025Z,17.00
2022-09-30T00:27:46.083Z,16.90
2022-09-30T00:27:56.181Z,16.70
2022-09-30T00:28:06.238Z,17.10
2022-09-30T00:28:16.306Z,15.70
2022-09-30T00:28:26.376Z,15.30
2022-09-30T00:28:36.478Z,14.50
2022-09-30T00:28:46.530Z,15.80
2022-09-30T00:28:56.606Z,16.90
2022-09-30T00:29:06.667Z,16.40
2022-09-30T00:29:16.755Z,15.20
2022-09-30T00:29:26.794Z,14.90
2022-09-30T00:29:36.884Z,16.10
2022-09-30T00:29:46.936Z,18.50
2022-09-30T00:29:57.074Z,20.80
2022-09-30T00:30:07.136Z,19.30
2022-09-30T00:30:17.207Z,16.00
2022-09-30T00:30:27.269Z,14.30
2022-09-30T00:30:37.327Z,15.70
2022-09-30T00:30:47.387Z,16.90
2022-09-30T00:30:57.452Z,16.60
2022-09-30T00:31:07.576Z,15.60
2022-09-30T00:31:17.697Z,16.00
2022-09-30T00:31:27.749Z,16.10
2022-09-30T00:31:37.718Z,15.90
2022-09-30T00:31:47.782Z,15.50
2022-09-30T00:31:57.932Z,14.70
2022-09-30T00:32:07.987Z,15.40
2022-09-30T00:32:18.045Z,15.30
2022-09-30T00:32:28.101Z,16.10
2022-09-30T00:32:38.154Z,15.90
2022-09-30T00:32:48.215Z,15.90
2022-09-30T00:32:58.274Z,15.30
2022-09-30T00:33:08.316Z,14.40
2022-09-30T00:33:18.395Z,14.30
2022-09-30T00:33:28.478Z,14.20
2022-09-30T00:33:38.563Z,14.10
2022-09-30T00:33:48.657Z,14.20
2022-09-30T00:33:58.707Z,14.90
2022-09-30T00:34:09.100Z,16.40
2022-09-30T00:34:18.903Z,16.70
2022-09-30T00:34:28.946Z,16.70
2022-09-30T00:34:38.994Z,16.70
2022-09-30T00:34:49.085Z,17.90
2022-09-30T00:34:59.136Z,17.00
2022-09-30T00:35:09.185Z,16.10
2022-09-30T00:35:22.440Z,14.10
2022-09-30T00:35:29.287Z,15.40
2022-09-30T00:35:39.347Z,15.10
2022-09-30T00:35:49.406Z,15.40
2022-09-30T00:35:59.477Z,14.90
2022-09-30T00:36:09.546Z,14.60
2022-09-30T00:36:19.596Z,14.70
2022-09-30T00:36:29.646Z,14.10
2022-09-30T00:36:39.707Z,14.10
2022-09-30T00:36:49.747Z,14.30
2022-09-30T00:36:59.838Z,15.30
2022-09-30T00:37:09.907Z,17.00
2022-09-30T00:37:19.956Z,16.30
2022-09-30T00:37:29.997Z,15.00
2022-09-30T00:37:40.046Z,13.90
2022-09-30T00:37:50.115Z,14.30
2022-09-30T00:38:00.167Z,14.60
2022-09-30T00:38:10.252Z,14.60
2022-09-30T00:38:20.322Z,14.50
2022-09-30T00:38:30.382Z,14.30
2022-09-30T00:38:40.435Z,14.20
2022-09-30T00:38:50.553Z,14.90
2022-09-30T00:39:00.629Z,15.60
2022-09-30T00:39:10.693Z,15.80
2022-09-30T00:39:20.852Z,15.00
2022-09-30T00:39:30.817Z,14.30
2022-09-30T00:39:40.915Z,14.00
2022-09-30T00:39:50.976Z,14.80
2022-09-30T00:40:01.052Z,14.80
2022-09-30T00:40:11.135Z,15.40
2022-09-30T00:40:21.225Z,14.80
2022-09-30T00:40:31.298Z,14.70
2022-09-30T00:40:41.505Z,14.40
2022-09-30T00:40:51.545Z,14.60
2022-09-30T00:41:01.607Z,14.00
2022-09-30T00:41:11.646Z,13.90
2022-09-30T00:41:21.705Z,13.30
2022-09-30T00:41:31.796Z,13.50
2022-09-30T00:41:41.845Z,13.30
2022-09-30T00:41:51.885Z,13.70
2022-09-30T00:42:01.935Z,13.80
2022-09-30T00:42:11.996Z,14.10
2022-09-30T00:42:22.047Z,15.30
2022-09-30T00:42:32.095Z,16.40
2022-09-30T00:42:42.183Z,16.30
2022-09-30T00:42:52.263Z,15.20
2022-09-30T00:43:02.322Z,15.50
2022-09-30T00:43:12.387Z,14.60
2022-09-30T00:43:22.422Z,15.60
2022-09-30T00:43:32.505Z,15.30
2022-09-30T00:43:42.544Z,16.50
2022-09-30T00:43:52.619Z,15.90
2022-09-30T00:44:02.659Z,15.00
2022-09-30T00:44:12.687Z,14.70
2022-09-30T00:44:22.743Z,14.40
2022-09-30T00:44:32.773Z,14.80
2022-09-30T00:44:42.824Z,14.70
2022-09-30T00:44:52.875Z,14.70
2022-09-30T00:45:02.937Z,14.70
2022-09-30T00:45:12.994Z,15.20
2022-09-30T00:45:23.025Z,15.20
2022-09-30T00:45:33.107Z,16.30
2022-09-30T00:45:43.141Z,15.00
2022-09-30T00:45:53.184Z,16.90
2022-09-30T00:46:03.218Z,15.60
2022-09-30T00:46:13.274Z,16.30
2022-09-30T00:46:23.346Z,14.50
2022-09-30T00:46:33.411Z,14.70
2022-09-30T00:46:44.997Z,16.30
2022-09-30T00:46:53.655Z,16.20
2022-09-30T00:47:03.703Z,17.60
2022-09-30T00:47:13.784Z,15.80
2022-09-30T00:47:23.816Z,17.50
2022-09-30T00:47:33.855Z,16.00
2022-09-30T00:47:43.935Z,16.20
2022-09-30T00:47:53.985Z,15.20
2022-09-30T00:48:04.025Z,15.80
2022-09-30T00:48:14.080Z,16.20
2022-09-30T00:48:24.114Z,16.30
2022-09-30T00:48:34.166Z,18.20
2022-09-30T00:48:44.205Z,18.00
2022-09-30T00:48:54.253Z,17.20
2022-09-30T00:49:04.293Z,16.20
2022-09-30T00:49:14.325Z,17.30
2022-09-30T00:49:24.362Z,16.90
2022-09-30T00:49:34.415Z,16.20
2022-09-30T00:49:44.465Z,15.10
2022-09-30T00:49:54.523Z,15.90
2022-09-30T00:50:04.571Z,16.30
2022-09-30T00:50:14.614Z,16.70
2022-09-30T00:50:24.674Z,17.30
2022-09-30T00:50:34.734Z,18.80
2022-09-30T00:50:44.794Z,18.50
2022-09-30T00:50:54.832Z,19.00
2022-09-30T00:51:04.890Z,18.90
2022-09-30T00:51:14.956Z,20.30
2022-09-30T00:51:25.006Z,19.40
2022-09-30T00:51:35.055Z,18.90
2022-09-30T00:51:45.105Z,17.90
2022-09-30T00:51:55.165Z,17.90
2022-09-30T00:52:05.233Z,17.20
2022-09-30T00:52:15.293Z,16.90
2022-09-30T00:52:25.353Z,18.60
2022-09-30T00:52:35.425Z,18.90
2022-09-30T00:52:45.474Z,18.90
2022-09-30T00:52:55.518Z,18.00
2022-09-30T00:53:05.624Z,17.60
2022-09-30T00:53:15.678Z,17.70
2022-09-30T00:53:25.732Z,16.70
2022-09-30T00:53:35.784Z,15.10
2022-09-30T00:53:45.875Z,15.00
2022-09-30T00:53:55.925Z,15.70
2022-09-30T00:54:05.984Z,17.20
2022-09-30T00:54:16.064Z,16.60
2022-09-30T00:54:26.063Z,15.70
2022-09-30T00:54:36.158Z,16.90
2022-09-30T00:54:46.226Z,18.50
2022-09-30T00:54:56.279Z,22.00
2022-09-30T00:55:06.344Z,21.50
2022-09-30T00:55:16.394Z,19.90
2022-09-30T00:55:26.452Z,17.10
2022-09-30T00:55:36.515Z,16.30
2022-09-30T00:55:46.560Z,16.50
2022-09-30T00:55:56.623Z,17.90
2022-09-30T00:56:06.673Z,18.30
2022-09-30T00:56:16.754Z,19.10
2022-09-30T00:56:26.806Z,18.50
2022-09-30T00:56:36.868Z,18.50
2022-09-30T00:56:46.934Z,17.90
2022-09-30T00:56:57.004Z,16.80
2022-09-30T00:57:07.095Z,18.30
2022-09-30T00:57:17.174Z,19.30
2022-09-30T00:57:27.243Z,19.30
2022-09-30T00:57:37.293Z,18.70
2022-09-30T00:57:47.353Z,17.70
2022-09-30T00:57:57.404Z,18.00
2022-09-30T00:58:07.474Z,18.20
2022-09-30T00:58:17.527Z,18.00
2022-09-30T00:58:27.594Z,17.50
2022-09-30T00:58:37.663Z,18.20
2022-09-30T00:58:47.714Z,18.00
2022-09-30T00:58:57.770Z,17.40
2022-09-30T00:59:07.862Z,16.70
2022-09-30T00:59:17.947Z,17.40
2022-09-30T00:59:27.966Z,17.30
2022-09-30T00:59:38.065Z,17.00
2022-09-30T00:59:48.147Z,16.50
2022-09-30T00:59:58.221Z,17.40
2022-09-30T01:00:08.276Z,16.30
2022-09-30T01:00:18.342Z,14.90
2022-09-30T01:00:28.451Z,14.50
2022-09-30T01:00:38.633Z,17.50
2022-09-30T01:00:48.741Z,17.90
2022-09-30T01:00:58.846Z,17.70
2022-09-30T01:01:08.975Z,15.20
2022-09-30T01:01:19.012Z,15.50
2022-09-30T01:01:29.094Z,15.60
2022-09-30T01:01:39.230Z,17.00
2022-09-30T01:01:49.386Z,16.80
2022-09-30T01:01:59.480Z,18.00
2022-09-30T01:02:09.619Z,16.60
2022-09-30T01:02:19.729Z,16.60
2022-09-30T01:02:29.849Z,16.40
2022-09-30T01:02:39.893Z,16.40
2022-09-30T01:02:49.993Z,17.40
2022-09-30T01:03:00.048Z,17.40
2022-09-30T01:03:10.173Z,18.30
2022-09-30T01:03:20.217Z,17.70
2022-09-30T01:03:30.264Z,17.60
2022-09-30T01:03:40.304Z,16.70
2022-09-30T01:03:50.356Z,15.80
2022-09-30T01:04:00.413Z,15.90
2022-09-30T01:04:10.465Z,17.60
2022-09-30T01:04:20.520Z,18.00
2022-09-30T01:04:30.594Z,16.80
2022-09-30T01:04:40.654Z,14.50
2022-09-30T01:04:50.700Z,14.70
2022-09-30T01:05:00.748Z,14.80
2022-09-30T01:05:10.815Z,14.70
2022-09-30T01:05:20.873Z,15.20
2022-09-30T01:05:30.929Z,15.30
2022-09-30T01:05:41.006Z,16.20
2022-09-30T01:05:51.053Z,15.70
2022-09-30T01:06:01.123Z,16.70
2022-09-30T01:06:11.174Z,17.40
2022-09-30T01:06:21.230Z,17.10
2022-09-30T01:06:31.300Z,16.80
2022-09-30T01:06:41.353Z,16.10
2022-09-30T01:06:51.421Z,15.90
2022-09-30T01:07:01.481Z,15.40
2022-09-30T01:07:11.533Z,14.10
2022-09-30T01:07:21.584Z,14.60
2022-09-30T01:07:31.653Z,13.00
2022-09-30T01:07:41.713Z,13.50
2022-09-30T01:07:51.764Z,13.00
2022-09-30T01:08:01.822Z,14.20
2022-09-30T01:08:11.891Z,13.40
2022-09-30T01:08:21.966Z,15.30
2022-09-30T01:08:32.011Z,15.80
2022-09-30T01:08:42.053Z,16.20
2022-09-30T01:08:52.107Z,14.40
2022-09-30T01:09:02.194Z,13.50
2022-09-30T01:09:12.268Z,14.80
2022-09-30T01:09:22.554Z,14.30
2022-09-30T01:09:32.452Z,14.60
2022-09-30T01:09:42.633Z,13.10
2022-09-30T01:09:52.691Z,13.50
2022-09-30T01:10:02.743Z,13.80
2022-09-30T01:10:12.773Z,13.60
2022-09-30T01:10:22.846Z,13.50
2022-09-30T01:10:32.889Z,13.80
2022-09-30T01:10:42.941Z,14.80
2022-09-30T01:10:52.982Z,14.90
2022-09-30T01:11:07.871Z,14.90
2022-09-30T01:11:13.176Z,14.20
2022-09-30T01:11:23.274Z,15.20
2022-09-30T01:11:33.333Z,14.80
2022-09-30T01:11:43.464Z,14.80
2022-09-30T01:11:53.495Z,14.20
2022-09-30T01:12:03.570Z,14.60
2022-09-30T01:12:13.623Z,14.10
2022-09-30T01:12:23.710Z,15.60
2022-09-30T01:12:33.773Z,16.80
2022-09-30T01:12:43.840Z,16.80
2022-09-30T01:12:53.890Z,17.30
2022-09-30T01:13:03.932Z,16.00
2022-09-30T01:13:14.004Z,15.60
2022-09-30T01:13:24.052Z,14.90
2022-09-30T01:13:34.133Z,15.10
2022-09-30T01:13:44.184Z,15.30
2022-09-30T01:13:54.242Z,13.70
2022-09-30T01:14:04.323Z,14.90
2022-09-30T01:14:14.360Z,15.20
2022-09-30T01:14:24.419Z,15.50
2022-09-30T01:14:34.472Z,14.60
2022-09-30T01:14:44.530Z,14.20
2022-09-30T01:14:54.682Z,15.90
2022-09-30T01:15:04.731Z,16.30
2022-09-30T01:15:14.779Z,16.50
2022-09-30T01:15:24.831Z,15.10
2022-09-30T01:15:34.882Z,14.70
2022-09-30T01:15:44.942Z,16.80
2022-09-30T01:15:55.009Z,16.70
2022-09-30T01:16:05.117Z,18.20
2022-09-30T01:16:15.229Z,16.90
2022-09-30T01:16:25.324Z,16.30
2022-09-30T01:16:35.393Z,15.50
2022-09-30T01:16:45.502Z,15.10
2022-09-30T01:16:55.574Z,15.20
2022-09-30T01:17:05.629Z,15.90
2022-09-30T01:17:15.663Z,17.30
2022-09-30T01:17:25.704Z,16.90
2022-09-30T01:17:35.761Z,16.50
2022-09-30T01:17:45.819Z,15.70
2022-09-30T01:17:55.861Z,16.20
2022-09-30T01:18:05.921Z,15.50
2022-09-30T01:18:15.983Z,14.30
2022-09-30T01:18:26.032Z,13.30
2022-09-30T01:18:36.091Z,14.10
2022-09-30T01:18:46.133Z,14.40
2022-09-30T01:18:56.191Z,14.60
2022-09-30T01:19:06.222Z,14.20
2022-09-30T01:19:16.312Z,14.10
2022-09-30T01:19:26.364Z,14.80
2022-09-30T01:19:36.420Z,14.20
2022-09-30T01:19:46.469Z,13.50
2022-09-30T01:19:56.513Z,12.30
2022-09-30T01:20:06.572Z,11.90
2022-09-30T01:20:16.623Z,12.70
2022-09-30T01:20:26.681Z,13.70
2022-09-30T01:20:36.741Z,13.90
2022-09-30T01:20:46.794Z,13.80
2022-09-30T01:20:56.839Z,13.80
2022-09-30T01:21:06.889Z,14.10
2022-09-30T01:21:16.951Z,14.20
2022-09-30T01:21:27.022Z,14.90
2022-09-30T01:21:37.081Z,14.70
2022-09-30T01:21:47.199Z,15.10
2022-09-30T01:21:57.251Z,14.60
2022-09-30T01:22:07.322Z,15.20
2022-09-30T01:22:17.402Z,15.40
2022-09-30T01:22:27.461Z,16.50
2022-09-30T01:22:41.921Z,15.70
2022-09-30T01:22:47.542Z,15.70
2022-09-30T01:22:57.603Z,15.80
2022-09-30T01:23:07.722Z,16.70
2022-09-30T01:23:17.772Z,18.50
2022-09-30T01:23:27.831Z,17.80
2022-09-30T01:23:37.882Z,17.30
2022-09-30T01:23:47.922Z,15.30
2022-09-30T01:23:57.976Z,14.80
2022-09-30T01:24:08.032Z,14.10
2022-09-30T01:24:18.091Z,13.60
2022-09-30T01:24:28.200Z,14.30
2022-09-30T01:24:38.261Z,15.50
2022-09-30T01:24:48.329Z,15.60
2022-09-30T01:24:58.382Z,15.70
2022-09-30T01:25:08.441Z,15.30
2022-09-30T01:25:18.501Z,17.10
2022-09-30T01:25:28.563Z,16.90
2022-09-30T01:25:38.611Z,17.60
2022-09-30T01:25:48.681Z,15.20
2022-09-30T01:25:58.731Z,15.00
2022-09-30T01:26:08.788Z,13.60
2022-09-30T01:26:18.894Z,13.00
2022-09-30T01:26:28.939Z,13.10
2022-09-30T01:26:39.001Z,13.40
2022-09-30T01:26:49.062Z,18.00
2022-09-30T01:26:59.109Z,18.50
2022-09-30T01:27:09.172Z,18.90
2022-09-30T01:27:19.218Z,15.00
2022-09-30T01:27:29.302Z,14.60
2022-09-30T01:27:39.353Z,14.30
2022-09-30T01:27:49.448Z,14.50
2022-09-30T01:27:59.481Z,13.80
2022-09-30T01:28:09.552Z,13.70
2022-09-30T01:28:19.601Z,12.50
2022-09-30T01:28:29.659Z,13.20
2022-09-30T01:28:39.711Z,13.30
2022-09-30T01:28:49.771Z,14.50
2022-09-30T01:28:59.820Z,13.70
2022-09-30T01:29:09.881Z,14.10
2022-09-30T01:29:19.971Z,15.10
2022-09-30T01:29:30.049Z,16.90
2022-09-30T01:29:40.110Z,17.00
2022-09-30T01:29:50.171Z,16.20
2022-09-30T01:30:00.223Z,14.60
2022-09-30T01:30:10.279Z,14.80
2022-09-30T01:30:20.352Z,16.20
2022-09-30T01:30:30.411Z,17.20
2022-09-30T01:30:40.470Z,16.40
2022-09-30T01:30:50.525Z,14.00
2022-09-30T01:31:00.601Z,13.20
2022-09-30T01:31:10.704Z,12.80
2022-09-30T01:31:20.801Z,13.60
2022-09-30T01:31:30.923Z,13.70
2022-09-30T01:31:41.047Z,14.80
2022-09-30T01:31:51.135Z,14.70
2022-09-30T01:32:01.180Z,16.00
2022-09-30T01:32:11.229Z,15.70
2022-09-30T01:32:21.281Z,15.10
2022-09-30T01:32:31.348Z,14.40
2022-09-30T01:32:41.421Z,14.90
2022-09-30T01:32:51.490Z,14.00
2022-09-30T01:33:01.552Z,14.30
2022-09-30T01:33:11.600Z,14.40
2022-09-30T01:33:21.683Z,14.70
2022-09-30T01:33:31.741Z,13.90
2022-09-30T01:33:41.810Z,13.60
2022-09-30T01:33:51.890Z,13.40
2022-09-30T01:34:01.961Z,14.20
2022-09-30T01:34:12.040Z,13.80
2022-09-30T01:34:22.102Z,14.20
2022-09-30T01:34:32.167Z,13.00
2022-09-30T01:34:42.247Z,13.80
2022-09-30T01:34:52.300Z,13.50
2022-09-30T01:35:02.360Z,14.70
2022-09-30T01:35:12.430Z,14.10
2022-09-30T01:35:22.481Z,15.10
2022-09-30T01:35:32.542Z,14.20
2022-09-30T01:35:42.621Z,13.50
2022-09-30T01:35:52.687Z,13.60
2022-09-30T01:36:02.761Z,14.30
2022-09-30T01:36:12.840Z,15.20
2022-09-30T01:36:22.900Z,14.10
2022-09-30T01:36:32.959Z,13.30
2022-09-30T01:36:43.012Z,12.90
2022-09-30T01:36:53.053Z,12.90
2022-09-30T01:37:03.110Z,13.20
2022-09-30T01:37:13.168Z,14.80
2022-09-30T01:37:23.220Z,15.20
2022-09-30T01:37:33.286Z,15.60
2022-09-30T01:37:43.323Z,12.90
2022-09-30T01:37:53.398Z,13.20
2022-09-30T01:38:03.492Z,12.90
2022-09-30T01:38:13.549Z,13.90
2022-09-30T01:38:23.610Z,14.60
2022-09-30T01:38:33.681Z,14.60
2022-09-30T01:38:43.800Z,13.90
2022-09-30T01:38:53.870Z,13.30
2022-09-30T01:39:03.938Z,13.40
2022-09-30T01:39:14.009Z,13.40
2022-09-30T01:39:24.092Z,13.40
2022-09-30T01:39:34.148Z,14.30
2022-09-30T01:39:44.199Z,14.70
2022-09-30T01:39:54.299Z,16.50
2022-09-30T01:40:04.393Z,17.30
2022-09-30T01:40:14.431Z,18.40
2022-09-30T01:40:24.491Z,16.10
2022-09-30T01:40:34.550Z,15.30
2022-09-30T01:40:44.601Z,14.10
2022-09-30T01:40:54.758Z,15.20
2022-09-30T01:41:04.791Z,14.90
2022-09-30T01:41:14.860Z,14.80
2022-09-30T01:41:24.927Z,14.50
2022-09-30T01:41:34.999Z,15.80
2022-09-30T01:41:45.100Z,15.20
2022-09-30T01:41:55.163Z,15.70
2022-09-30T01:42:05.238Z,15.20
2022-09-30T01:42:15.296Z,15.40
2022-09-30T01:42:25.359Z,16.20
2022-09-30T01:42:35.420Z,15.80
2022-09-30T01:42:45.499Z,15.80
2022-09-30T01:42:55.567Z,14.60
2022-09-30T01:43:05.678Z,14.40
2022-09-30T01:43:15.740Z,15.50
2022-09-30T01:43:25.809Z,15.20
2022-09-30T01:43:35.880Z,15.00
2022-09-30T01:43:45.940Z,14.60
2022-09-30T01:43:56.029Z,13.60
2022-09-30T01:44:06.109Z,13.60
2022-09-30T01:44:16.160Z,12.60
2022-09-30T01:44:26.267Z,13.40
2022-09-30T01:44:36.319Z,14.00
2022-09-30T01:44:46.387Z,15.30
2022-09-30T01:44:56.470Z,16.10
2022-09-30T01:45:06.531Z,16.80
2022-09-30T01:45:16.597Z,16.00
2022-09-30T01:45:26.658Z,14.70
2022-09-30T01:45:36.751Z,13.20
2022-09-30T01:45:46.810Z,13.20
2022-09-30T01:45:56.869Z,13.30
2022-09-30T01:46:06.934Z,13.80
2022-09-30T01:46:17.022Z,14.10
2022-09-30T01:46:27.141Z,13.70
2022-09-30T01:46:37.231Z,13.60
2022-09-30T01:46:47.376Z,12.80
2022-09-30T01:46:57.529Z,13.20
2022-09-30T01:47:07.579Z,15.20
2022-09-30T01:47:17.648Z,15.70
2022-09-30T01:47:27.709Z,16.50
2022-09-30T01:47:37.820Z,14.60
2022-09-30T01:47:47.895Z,14.40
2022-09-30T01:47:57.960Z,14.10
2022-09-30T01:48:08.029Z,14.20
2022-09-30T01:48:18.109Z,14.20
2022-09-30T01:48:28.180Z,13.30
2022-09-30T01:48:38.253Z,13.90
2022-09-30T01:48:48.319Z,14.00
2022-09-30T01:48:58.387Z,15.70
2022-09-30T01:49:08.448Z,14.00
2022-09-30T01:49:18.545Z,14.50
2022-09-30T01:49:28.588Z,13.00
2022-09-30T01:49:38.698Z,14.10
2022-09-30T01:49:48.771Z,13.40
2022-09-30T01:49:58.836Z,13.40
2022-09-30T01:50:08.920Z,13.30
2022-09-30T01:50:18.987Z,12.70
2022-09-30T01:50:29.045Z,14.20
2022-09-30T01:50:39.107Z,14.80
2022-09-30T01:50:49.169Z,20.10
2022-09-30T01:50:59.221Z,18.20
2022-09-30T01:51:09.286Z,17.70
2022-09-30T01:51:19.329Z,14.80
2022-09-30T01:51:29.398Z,15.20
2022-09-30T01:51:39.468Z,15.70
2022-09-30T01:51:49.557Z,14.80
2022-09-30T01:51:59.608Z,14.80
2022-09-30T01:52:09.712Z,14.50
2022-09-30T01:52:19.777Z,14.60
2022-09-30T01:52:29.841Z,14.90
2022-09-30T01:52:39.918Z,15.40
2022-09-30T01:52:50.028Z,14.80
2022-09-30T01:53:00.088Z,14.70
2022-09-30T01:53:10.145Z,15.10
2022-09-30T01:53:20.197Z,14.70
2022-09-30T01:53:30.305Z,15.30
2022-09-30T01:53:40.425Z,15.00
2022-09-30T01:53:50.470Z,15.50
2022-09-30T01:54:00.568Z,14.90
2022-09-30T01:54:10.628Z,16.30
2022-09-30T01:54:20.708Z,16.70
2022-09-30T01:54:30.769Z,17.60
2022-09-30T01:54:40.829Z,17.50
2022-09-30T01:54:50.909Z,18.50
2022-09-30T01:55:00.958Z,16.90
2022-09-30T01:55:11.008Z,17.10
2022-09-30T01:55:21.068Z,15.90
2022-09-30T01:55:31.129Z,16.20
2022-09-30T01:55:41.200Z,15.60
2022-09-30T01:56:29.482Z,13.10
2022-09-30T01:56:39.542Z,16.70
2022-09-30T01:56:49.613Z,16.40
2022-09-30T01:56:59.654Z,17.40
2022-09-30T01:57:09.716Z,16.60
2022-09-30T01:57:19.803Z,16.50
2022-09-30T01:57:29.853Z,16.30
2022-09-30T01:57:39.923Z,16.10
2022-09-30T01:57:49.963Z,17.20
2022-09-30T01:58:00.025Z,17.60
2022-09-30T01:58:10.085Z,17.50
2022-09-30T01:58:20.134Z,17.50
2022-09-30T01:58:30.187Z,17.50
2022-09-30T01:58:40.243Z,19.90
2022-09-30T01:58:50.301Z,20.00
2022-09-30T01:59:00.383Z,20.30
2022-09-30T01:59:10.443Z,17.50
2022-09-30T01:59:20.489Z,18.10
2022-09-30T01:59:30.555Z,17.50
2022-09-30T01:59:40.654Z,18.60
2022-09-30T01:59:50.722Z,18.10
2022-09-30T02:00:00.782Z,18.40
2022-09-30T02:00:10.823Z,18.80
2022-09-30T02:00:20.884Z,17.50
2022-09-30T02:00:30.999Z,16.70
2022-09-30T02:00:41.120Z,16.20
2022-09-30T02:00:51.201Z,17.20
2022-09-30T02:01:01.296Z,16.70
2022-09-30T02:01:11.382Z,15.70
2022-09-30T02:01:21.505Z,15.30
2022-09-30T02:01:31.547Z,15.90
2022-09-30T02:01:41.612Z,16.20
2022-09-30T02:01:51.673Z,16.00
2022-09-30T02:02:01.766Z,16.30
2022-09-30T02:02:11.857Z,15.40
2022-09-30T02:02:21.901Z,14.80
2022-09-30T02:02:32.006Z,16.10
2022-09-30T02:02:42.058Z,16.50
2022-09-30T02:02:52.095Z,16.80
2022-09-30T02:03:02.144Z,14.90
2022-09-30T02:03:12.223Z,15.60
2022-09-30T02:03:22.262Z,16.30
2022-09-30T02:03:32.325Z,19.30
2022-09-30T02:03:42.373Z,18.80
2022-09-30T02:03:52.425Z,18.20
2022-09-30T02:04:02.482Z,23.20
2022-09-30T02:04:12.524Z,25.70
2022-09-30T02:04:22.600Z,26.00
2022-09-30T02:04:32.660Z,18.80
2022-09-30T02:04:42.720Z,16.10
2022-09-30T02:04:52.783Z,16.90
2022-09-30T02:05:02.833Z,17.00
2022-09-30T02:05:12.882Z,17.40
2022-09-30T02:05:22.942Z,17.20
2022-09-30T02:05:33.036Z,16.70
2022-09-30T02:05:43.063Z,17.10
2022-09-30T02:05:53.131Z,17.30
2022-09-30T02:06:03.176Z,18.00
2022-09-30T02:06:13.262Z,18.30
2022-09-30T02:06:23.303Z,16.70
2022-09-30T02:06:33.354Z,15.90
2022-09-30T02:06:43.422Z,14.70
2022-09-30T02:06:53.482Z,15.20
2022-09-30T02:07:03.562Z,15.20
2022-09-30T02:07:13.621Z,15.30
2022-09-30T02:07:23.672Z,14.70
2022-09-30T02:07:33.713Z,15.40
2022-09-30T02:07:43.812Z,16.10
2022-09-30T02:07:53.871Z,16.10
2022-09-30T02:08:03.922Z,16.70
2022-09-30T02:08:13.992Z,15.40
2022-09-30T02:08:24.039Z,16.30
2022-09-30T02:08:34.100Z,17.00
2022-09-30T02:08:44.173Z,18.80
2022-09-30T02:08:54.239Z,18.80
2022-09-30T02:09:04.330Z,19.00
2022-09-30T02:09:14.489Z,18.00
2022-09-30T02:09:24.564Z,18.40
2022-09-30T02:09:34.609Z,17.40
2022-09-30T02:09:44.594Z,18.30
2022-09-30T02:09:54.674Z,19.40
2022-09-30T02:10:04.730Z,18.50
2022-09-30T02:10:14.776Z,18.30